TimeCEST,TemperatureF,Dew PointF,Humidity,Sea Level PressureIn,VisibilityMPH,Wind Direction,Wind SpeedMPH,Gust SpeedMPH,PrecipitationIn,Events,Conditions,WindDirDegrees,DateUTC
12:00 AM,66.2,59.0,78,30.18,-9999.0,Calm,Calm,-,N/A,,Clear,0,2013-08-20 22:00:00
1:00 AM,64.4,59.0,83,30.18,-9999.0,Variable,1.2,-,N/A,,Clear,0,2013-08-20 23:00:00
2:00 AM,60,53,72,30.17,16,Calm,Calm,,,,,,2013-08-21 00:00:00
2:00 AM,62.6,57.2,82,30.18,-9999.0,Calm,Calm,-,N/A,,Clear,0,2013-08-21 00:00:00
3:00 AM,60.8,59.0,94,30.15,-9999.0,Variable,1.2,-,N/A,,Clear,0,2013-08-21 01:00:00
4:00 AM,59.0,57.2,94,30.15,-9999.0,Variable,2.3,-,N/A,,Clear,0,2013-08-21 02:00:00
5:00 AM,59.0,57.2,94,30.15,-9999.0,Calm,Calm,-,N/A,,Clear,0,2013-08-21 03:00:00
6:00 AM,57.2,55.4,94,30.15,-9999.0,Variable,1.2,-,N/A,,Clear,0,2013-08-21 04:00:00
7:00 AM,57.2,55.4,94,30.15,-9999.0,Calm,Calm,-,N/A,,Clear,0,2013-08-21 05:00:00
8:00 AM,56,50,73,30.17,25,West,2.3,,,,,260,2013-08-21 06:00:00
8:00 AM,55.4,53.6,94,30.15,-9999.0,Variable,1.2,-,N/A,,Clear,0,2013-08-21 06:00:00
9:00 AM,60.8,55.4,82,30.15,-9999.0,Variable,1.2,-,N/A,,Clear,0,2013-08-21 07:00:00
10:00 AM,66.2,55.4,68,30.15,-9999.0,West,3.5,-,N/A,,Clear,280,2013-08-21 08:00:00
11:00 AM,71.6,57.2,60,30.15,-9999.0,Variable,1.2,-,N/A,,Clear,0,2013-08-21 09:00:00
12:00 PM,77.0,57.2,50,30.12,-9999.0,East,3.5,-,N/A,,Clear,90,2013-08-21 10:00:00
1:00 PM,80.6,57.2,45,30.12,-9999.0,East,6.9,-,N/A,,Clear,80,2013-08-21 11:00:00
2:00 PM,83,50,22,30.04,28,East,6.9,,,,,100,2013-08-21 12:00:00
2:00 PM,84.2,57.2,40,30.09,-9999.0,East,6.9,-,N/A,,Clear,100,2013-08-21 12:00:00
3:00 PM,87.8,51.8,29,30.06,-9999.0,East,5.8,-,N/A,,Clear,90,2013-08-21 13:00:00
4:00 PM,89.6,50.0,26,30.04,-9999.0,East,4.6,-,N/A,,Clear,80,2013-08-21 14:00:00
5:00 PM,91.4,50.0,24,30.01,-9999.0,ESE,5.8,-,N/A,,Clear,120,2013-08-21 15:00:00
6:00 PM,93.2,46.4,20,30.01,-9999.0,East,5.8,-,N/A,,Clear,100,2013-08-21 16:00:00
7:00 PM,91.4,46.4,21,30.01,-9999.0,East,4.6,-,N/A,,Clear,100,2013-08-21 17:00:00
8:00 PM,89,41,11,29.91,28,East,6.9,,,,,80,2013-08-21 18:00:00
8:00 PM,87.8,51.8,29,29.98,-9999.0,Variable,2.3,-,N/A,,Clear,0,2013-08-21 18:00:00
9:00 PM,78.8,62.6,57,29.98,-9999.0,Variable,2.3,-,N/A,,Clear,0,2013-08-21 19:00:00
10:00 PM,71.6,62.6,73,30.01,-9999.0,Calm,Calm,-,N/A,,Clear,0,2013-08-21 20:00:00
11:00 PM,69.8,60.8,73,30.01,-9999.0,Calm,Calm,-,N/A,,Clear,0,2013-08-21 21:00:00